createdAt,value
2023-04-09T00:01:08.528Z,17.90
2023-04-09T00:03:55.939Z,18.40
2023-04-09T00:06:43.531Z,16.87
2023-04-09T00:09:31.989Z,18.10
2023-04-09T00:12:21.069Z,17.17
2023-04-09T00:15:15.044Z,17.47
2023-04-09T00:18:08.165Z,17.80
2023-04-09T00:20:55.596Z,17.17
2023-04-09T00:23:43.121Z,16.20
2023-04-09T00:26:30.276Z,17.53
2023-04-09T00:29:19.232Z,16.97
2023-04-09T00:32:06.974Z,16.37
2023-04-09T00:34:54.095Z,16.40
2023-04-09T00:37:41.456Z,16.60
2023-04-09T00:40:29.180Z,16.23
2023-04-09T00:43:16.702Z,17.13
2023-04-09T00:46:06.404Z,16.57
2023-04-09T00:48:53.948Z,16.47
2023-04-09T00:51:41.704Z,17.00
2023-04-09T00:54:29.338Z,16.30
2023-04-09T00:57:17.142Z,16.77
2023-04-09T01:00:07.175Z,17.30
2023-04-09T01:02:58.453Z,18.47
2023-04-09T01:05:52.204Z,17.77
2023-04-09T01:08:47.719Z,16.93
2023-04-09T01:11:41.601Z,17.80
2023-04-09T01:14:35.961Z,17.37
2023-04-09T01:17:32.139Z,16.77
2023-04-09T01:20:29.762Z,17.87
2023-04-09T01:23:25.720Z,17.10
2023-04-09T01:26:22.454Z,16.33
2023-04-09T01:29:16.982Z,16.87
2023-04-09T01:32:06.156Z,17.27
2023-04-09T01:34:54.966Z,16.30
2023-04-09T01:37:43.380Z,16.30
2023-04-09T01:40:30.906Z,16.67
2023-04-09T01:43:19.465Z,18.13
2023-04-09T01:46:08.560Z,18.73
2023-04-09T01:48:56.831Z,16.20
2023-04-09T01:51:44.184Z,18.03
2023-04-09T01:54:31.568Z,17.70
2023-04-09T01:57:25.340Z,17.23
2023-04-09T02:00:13.856Z,16.57
2023-04-09T02:03:09.529Z,18.30
2023-04-09T02:06:02.546Z,17.20
2023-04-09T02:08:51.615Z,17.67
2023-04-09T02:11:41.202Z,17.60
2023-04-09T02:14:30.308Z,17.27
2023-04-09T02:17:17.533Z,18.07
2023-04-09T02:20:07.492Z,17.57
2023-04-09T02:22:54.823Z,17.73
2023-04-09T02:25:42.555Z,16.33
2023-04-09T02:28:29.885Z,17.30
2023-04-09T02:31:16.991Z,17.50
2023-04-09T02:34:04.331Z,17.73
2023-04-09T02:36:53.101Z,17.93
2023-04-09T02:39:40.224Z,17.83
2023-04-09T02:42:27.641Z,18.77
2023-04-09T02:45:15.202Z,17.67
2023-04-09T02:48:02.686Z,17.13
2023-04-09T02:50:54.475Z,18.57
2023-04-09T02:53:43.223Z,17.80
2023-04-09T02:56:30.479Z,17.63
2023-04-09T02:59:17.881Z,17.40
2023-04-09T03:02:06.742Z,17.97
2023-04-09T03:04:54.133Z,17.80
2023-04-09T03:07:41.631Z,18.53
2023-04-09T03:10:30.516Z,18.03
2023-04-09T03:13:17.668Z,17.67
2023-04-09T03:16:05.629Z,18.47
2023-04-09T03:18:53.495Z,17.57
2023-04-09T03:21:41.275Z,18.20
2023-04-09T03:24:28.738Z,16.73
2023-04-09T03:27:21.839Z,17.77
2023-04-09T03:30:13.621Z,19.00
2023-04-09T03:33:04.687Z,17.30
2023-04-09T03:35:56.705Z,17.97
2023-04-09T03:38:56.857Z,16.83
2023-04-09T03:41:49.920Z,18.60
2023-04-09T03:44:40.331Z,17.37
2023-04-09T03:47:30.620Z,18.53
2023-04-09T03:50:18.210Z,17.77
2023-04-09T03:53:10.236Z,17.20
2023-04-09T03:55:58.098Z,18.03
2023-04-09T03:58:48.407Z,18.60
2023-04-09T04:01:38.163Z,17.17
2023-04-09T04:04:25.964Z,17.83
2023-04-09T04:07:17.103Z,18.60
2023-04-09T04:10:15.780Z,17.37
2023-04-09T04:13:08.271Z,17.03
2023-04-09T04:16:08.507Z,17.17
2023-04-09T04:18:58.402Z,18.13
2023-04-09T04:21:47.081Z,17.53
2023-04-09T04:24:34.403Z,16.10
2023-04-09T04:27:22.803Z,18.60
2023-04-09T04:30:11.223Z,18.50
2023-04-09T04:33:13.673Z,17.70
2023-04-09T04:36:08.710Z,18.23
2023-04-09T04:39:00.094Z,17.60
2023-04-09T04:42:07.806Z,17.83
2023-04-09T04:44:55.645Z,17.50
2023-04-09T04:48:09.112Z,16.53
2023-04-09T04:50:57.425Z,18.43
2023-04-09T04:53:47.418Z,17.90
2023-04-09T04:56:35.518Z,17.57
2023-04-09T04:59:29.416Z,18.90
2023-04-09T05:02:21.518Z,18.37
2023-04-09T05:05:27.836Z,18.73
2023-04-09T05:08:17.717Z,18.30
2023-04-09T05:11:12.884Z,18.13
2023-04-09T05:14:01.715Z,20.00
2023-04-09T05:16:49.255Z,21.73
2023-04-09T05:19:38.910Z,22.33
2023-04-09T05:22:26.499Z,17.73
2023-04-09T05:25:16.047Z,20.60
2023-04-09T05:28:04.696Z,19.10
2023-04-09T05:30:53.913Z,19.63
2023-04-09T05:33:41.343Z,20.57
2023-04-09T05:36:36.041Z,21.60
2023-04-09T05:39:23.600Z,22.60
2023-04-09T05:42:11.938Z,18.67
2023-04-09T05:45:11.897Z,19.73
2023-04-09T05:48:08.284Z,18.63
2023-04-09T05:50:56.055Z,19.23
2023-04-09T05:53:46.113Z,20.73
2023-04-09T05:56:33.447Z,18.43
2023-04-09T05:59:22.570Z,20.07
2023-04-09T06:02:11.443Z,20.10
2023-04-09T06:04:59.289Z,19.77
2023-04-09T06:07:46.667Z,21.57
2023-04-09T06:10:34.724Z,20.43
2023-04-09T06:13:22.645Z,20.87
2023-04-09T06:16:10.831Z,22.50
2023-04-09T06:18:59.592Z,21.80
2023-04-09T06:21:46.739Z,22.00
2023-04-09T06:24:34.148Z,23.17
2023-04-09T06:27:22.143Z,23.13
2023-04-09T06:30:11.044Z,25.27
2023-04-09T06:32:58.160Z,23.33
2023-04-09T06:35:47.160Z,22.97
2023-04-09T06:38:34.521Z,24.00
2023-04-09T06:41:22.411Z,24.33
2023-04-09T06:44:09.822Z,21.00
2023-04-09T06:46:57.321Z,21.07
2023-04-09T06:49:44.890Z,21.63
2023-04-09T06:52:33.825Z,21.47
2023-04-09T06:55:21.101Z,22.27
2023-04-09T06:58:08.349Z,22.13
2023-04-09T07:00:56.321Z,21.97
2023-04-09T07:03:43.890Z,21.67
2023-04-09T07:06:31.128Z,23.13
2023-04-09T07:09:19.862Z,26.13
2023-04-09T07:12:07.082Z,24.00
2023-04-09T07:14:54.531Z,24.57
2023-04-09T07:17:42.081Z,24.67
2023-04-09T07:20:29.461Z,25.93
2023-04-09T07:23:17.294Z,26.43
2023-04-09T07:26:06.879Z,27.67
2023-04-09T07:28:54.103Z,26.50
2023-04-09T07:31:41.594Z,24.77
2023-04-09T07:34:28.981Z,25.60
2023-04-09T07:37:16.800Z,23.27
2023-04-09T07:40:04.618Z,23.13
2023-04-09T07:42:54.227Z,22.70
2023-04-09T07:45:41.473Z,21.93
2023-04-09T07:48:28.886Z,20.47
2023-04-09T07:51:16.322Z,22.37
2023-04-09T07:54:03.742Z,20.90
2023-04-09T07:56:51.407Z,21.30
2023-04-09T07:59:40.079Z,22.27
2023-04-09T08:02:27.852Z,20.63
2023-04-09T08:05:15.423Z,21.77
2023-04-09T08:08:03.121Z,21.47
2023-04-09T08:10:50.722Z,20.80
2023-04-09T08:13:38.036Z,20.15
2023-04-09T08:16:26.891Z,18.97
2023-04-09T08:19:14.767Z,18.83
2023-04-09T08:22:02.947Z,19.45
2023-04-09T08:24:53.081Z,19.70
2023-04-09T08:27:40.642Z,19.48
2023-04-09T08:30:27.748Z,18.92
2023-04-09T08:33:16.674Z,19.00
2023-04-09T08:36:03.928Z,18.17
2023-04-09T08:38:53.124Z,18.58
2023-04-09T08:41:44.437Z,18.98
2023-04-09T08:44:31.544Z,18.55
2023-04-09T08:47:20.572Z,19.25
2023-04-09T08:50:09.938Z,17.85
2023-04-09T08:52:59.085Z,19.08
2023-04-09T08:55:46.916Z,18.70
2023-04-09T08:58:34.399Z,18.42
2023-04-09T09:01:24.775Z,20.17
2023-04-09T09:04:12.325Z,19.73
2023-04-09T09:07:07.788Z,18.90
2023-04-09T09:09:57.033Z,19.48
2023-04-09T09:12:44.447Z,20.75
2023-04-09T09:15:31.582Z,19.17
2023-04-09T09:18:20.215Z,19.60
2023-04-09T09:21:14.170Z,19.98
2023-04-09T09:24:03.051Z,20.45
2023-04-09T09:26:50.462Z,21.02
2023-04-09T09:29:42.750Z,19.85
2023-04-09T09:32:30.719Z,18.73
2023-04-09T09:35:17.768Z,19.83
2023-04-09T09:38:05.455Z,19.90
2023-04-09T09:40:54.210Z,19.38
2023-04-09T09:43:42.631Z,19.48
2023-04-09T09:46:31.935Z,20.25
2023-04-09T09:49:19.174Z,20.05
2023-04-09T09:52:09.901Z,20.45
2023-04-09T09:55:00.786Z,20.08
2023-04-09T09:57:51.552Z,20.25
2023-04-09T10:00:41.234Z,18.38
2023-04-09T10:03:30.764Z,19.60
2023-04-09T10:06:18.587Z,18.70
2023-04-09T10:09:07.767Z,18.17
2023-04-09T10:11:57.891Z,17.98
2023-04-09T10:14:46.712Z,18.65
2023-04-09T10:17:34.161Z,19.55
2023-04-09T10:20:37.119Z,19.98
2023-04-09T10:23:32.980Z,18.80
2023-04-09T10:26:20.760Z,18.00
2023-04-09T10:29:09.057Z,18.65
2023-04-09T10:32:06.715Z,19.02
2023-04-09T10:34:58.743Z,18.80
2023-04-09T10:37:50.660Z,17.65
2023-04-09T10:40:42.480Z,17.70
2023-04-09T10:43:31.604Z,18.15
2023-04-09T10:46:30.109Z,17.63
2023-04-09T10:49:20.860Z,17.98
2023-04-09T10:52:12.028Z,18.90
2023-04-09T10:54:59.734Z,16.85
2023-04-09T10:57:46.994Z,18.88
2023-04-09T11:00:38.339Z,17.73
2023-04-09T11:03:29.011Z,19.48
2023-04-09T11:06:21.376Z,18.45
2023-04-09T11:09:08.770Z,17.80
2023-04-09T11:11:57.436Z,16.70
2023-04-09T11:14:45.202Z,17.35
2023-04-09T11:17:37.537Z,18.08
2023-04-09T11:20:26.409Z,16.25
2023-04-09T11:23:15.376Z,17.23
2023-04-09T11:26:03.091Z,16.88
2023-04-09T11:28:50.639Z,15.93
2023-04-09T11:31:37.846Z,16.20
2023-04-09T11:34:29.114Z,14.00
2023-04-09T11:37:17.242Z,14.23
2023-04-09T11:40:07.101Z,15.90
2023-04-09T11:42:55.627Z,16.10
2023-04-09T11:45:43.170Z,15.82
2023-04-09T11:48:31.599Z,16.50
2023-04-09T11:51:18.965Z,15.93
2023-04-09T11:54:07.109Z,14.90
2023-04-09T11:56:56.133Z,15.07
2023-04-09T11:59:43.430Z,15.20
2023-04-09T12:02:31.476Z,14.30
2023-04-09T12:05:26.492Z,14.88
2023-04-09T12:08:13.971Z,15.97
2023-04-09T12:11:10.426Z,14.82
2023-04-09T12:14:02.830Z,14.50
2023-04-09T12:16:53.167Z,13.70
2023-04-09T12:19:40.788Z,14.07
2023-04-09T12:22:28.349Z,13.65
2023-04-09T12:25:15.551Z,14.93
2023-04-09T12:28:03.488Z,14.85
2023-04-09T12:30:52.655Z,14.82
2023-04-09T12:33:40.326Z,14.43
2023-04-09T12:36:27.626Z,13.98
2023-04-09T12:39:15.498Z,14.13
2023-04-09T12:42:03.008Z,14.30
2023-04-09T12:44:50.597Z,13.63
2023-04-09T12:47:39.723Z,13.57
2023-04-09T12:50:26.925Z,13.98
2023-04-09T12:53:14.391Z,13.95
2023-04-09T12:56:01.800Z,14.00
2023-04-09T12:58:49.225Z,13.77
2023-04-09T13:01:36.784Z,14.47
2023-04-09T13:04:25.674Z,13.82
2023-04-09T13:07:15.596Z,13.77
2023-04-09T13:10:02.783Z,13.45
2023-04-09T13:12:51.380Z,14.07
2023-04-09T13:15:38.758Z,13.18
2023-04-09T13:18:26.089Z,12.40
2023-04-09T13:21:18.576Z,13.25
2023-04-09T13:24:06.787Z,13.35
2023-04-09T13:26:54.052Z,13.75
2023-04-09T13:29:41.664Z,13.70
2023-04-09T13:32:28.791Z,13.25
2023-04-09T13:35:16.223Z,12.55
2023-04-09T13:38:05.096Z,13.82
2023-04-09T13:40:52.147Z,12.70
2023-04-09T13:43:39.535Z,12.38
2023-04-09T13:46:27.872Z,10.45
2023-04-09T13:49:15.112Z,10.50
2023-04-09T13:52:04.440Z,9.75
2023-04-09T13:54:54.256Z,9.70
2023-04-09T13:57:41.556Z,10.20
2023-04-09T14:00:29.021Z,11.18
2023-04-09T14:03:16.689Z,12.18
2023-04-09T14:06:04.597Z,11.30
2023-04-09T14:08:52.272Z,11.07
2023-04-09T14:11:40.790Z,10.77
2023-04-09T14:14:28.244Z,10.90
2023-04-09T14:17:16.041Z,11.07
2023-04-09T14:20:04.567Z,10.88
2023-04-09T14:22:52.011Z,12.20
2023-04-09T14:25:39.146Z,9.45
2023-04-09T14:28:27.867Z,8.75
2023-04-09T14:31:15.262Z,8.18
2023-04-09T14:34:02.390Z,8.52
2023-04-09T14:36:49.774Z,9.07
2023-04-09T14:39:37.307Z,8.65
2023-04-09T14:42:24.523Z,10.23
2023-04-09T14:45:13.226Z,10.77
2023-04-09T14:48:00.744Z,9.13
2023-04-09T14:50:51.202Z,8.48
2023-04-09T14:53:38.690Z,7.75
2023-04-09T14:56:26.154Z,7.72
2023-04-09T14:59:13.653Z,10.00
2023-04-09T15:02:02.930Z,10.05
2023-04-09T15:04:50.687Z,9.30
2023-04-09T15:07:39.125Z,9.30
2023-04-09T15:10:26.531Z,9.10
2023-04-09T15:13:13.845Z,10.75
2023-04-09T15:16:01.161Z,10.65
2023-04-09T15:18:51.989Z,9.98
2023-04-09T15:21:39.637Z,10.10
2023-04-09T15:24:26.944Z,11.50
2023-04-09T15:27:14.338Z,10.35
2023-04-09T15:30:01.812Z,10.95
2023-04-09T15:32:49.221Z,10.07
2023-04-09T15:35:38.035Z,11.82
2023-04-09T15:38:25.433Z,17.30
2023-04-09T15:41:13.107Z,13.48
2023-04-09T15:44:00.445Z,14.68
2023-04-09T15:46:47.811Z,12.15
2023-04-09T15:49:36.689Z,11.75
2023-04-09T15:52:25.785Z,11.90
2023-04-09T15:55:13.004Z,12.02
2023-04-09T15:58:00.523Z,12.43
2023-04-09T16:00:50.325Z,13.63
2023-04-09T16:03:39.745Z,12.85
2023-04-09T16:06:27.369Z,12.82
2023-04-09T16:09:16.219Z,13.18
2023-04-09T16:12:03.749Z,12.10
2023-04-09T16:14:51.464Z,12.82
2023-04-09T16:17:40.845Z,13.10
2023-04-09T16:20:29.314Z,13.07
2023-04-09T16:23:16.532Z,14.30
2023-04-09T16:26:05.538Z,13.35
2023-04-09T16:28:53.377Z,11.98
2023-04-09T16:31:42.429Z,12.35
2023-04-09T16:34:31.426Z,12.57
2023-04-09T16:37:18.624Z,13.43
2023-04-09T16:40:07.023Z,12.35
2023-04-09T16:42:56.060Z,13.20
2023-04-09T16:45:43.748Z,12.95
2023-04-09T16:48:31.036Z,13.10
2023-04-09T16:51:18.454Z,11.77
2023-04-09T16:54:06.430Z,12.40
2023-04-09T16:56:54.098Z,11.30
2023-04-09T16:59:44.812Z,10.75
2023-04-09T17:02:32.417Z,11.60
2023-04-09T17:05:19.984Z,10.65
2023-04-09T17:08:07.202Z,11.43
2023-04-09T17:11:01.742Z,11.32
2023-04-09T17:13:49.106Z,18.40
2023-04-09T17:16:38.070Z,52.55
2023-04-09T17:19:25.510Z,16.77
2023-04-09T17:22:13.889Z,14.13
2023-04-09T17:25:01.736Z,20.73
2023-04-09T17:27:49.037Z,18.35
2023-04-09T17:30:36.632Z,13.75
2023-04-09T17:33:26.000Z,14.68
2023-04-09T17:36:13.124Z,14.98
2023-04-09T17:39:00.578Z,10.50
2023-04-09T17:41:48.124Z,10.20
2023-04-09T17:44:35.671Z,11.98
2023-04-09T17:47:23.188Z,14.15
2023-04-09T17:50:12.832Z,26.10
2023-04-09T17:53:00.188Z,22.15
2023-04-09T17:55:48.856Z,20.38
2023-04-09T17:58:36.142Z,20.35
2023-04-09T18:01:23.711Z,16.17
2023-04-09T18:04:11.866Z,12.77
2023-04-09T18:07:00.554Z,12.40
2023-04-09T18:09:47.768Z,10.63
2023-04-09T18:12:35.597Z,12.77
2023-04-09T18:15:23.037Z,21.33
2023-04-09T18:18:10.402Z,26.33
2023-04-09T18:20:57.676Z,22.33
2023-04-09T18:23:46.530Z,21.87
2023-04-09T18:26:34.420Z,18.73
2023-04-09T18:29:21.569Z,19.30
2023-04-09T18:32:09.144Z,17.13
2023-04-09T18:34:56.941Z,17.80
2023-04-09T18:37:44.263Z,16.80
2023-04-09T18:40:32.966Z,15.07
2023-04-09T18:43:20.726Z,14.93
2023-04-09T18:46:08.132Z,16.70
2023-04-09T18:48:55.706Z,16.33
2023-04-09T18:51:42.898Z,16.97
2023-04-09T18:54:30.449Z,18.03
2023-04-09T18:57:19.316Z,18.07
2023-04-09T19:00:08.038Z,19.77
2023-04-09T19:02:55.311Z,24.97
2023-04-09T19:05:42.990Z,24.63
2023-04-09T19:08:35.534Z,24.93
2023-04-09T19:11:24.252Z,20.47
2023-04-09T19:14:13.086Z,19.70
2023-04-09T19:17:02.302Z,19.93
2023-04-09T19:19:50.012Z,20.27
2023-04-09T19:22:37.454Z,20.23
2023-04-09T19:25:25.209Z,20.33
2023-04-09T19:28:12.556Z,19.33
2023-04-09T19:31:03.446Z,18.30
2023-04-09T19:33:51.717Z,18.43
2023-04-09T19:36:38.974Z,16.60
2023-04-09T19:39:27.218Z,16.83
2023-04-09T19:42:14.193Z,16.57
2023-04-09T19:45:01.775Z,16.77
2023-04-09T19:47:50.641Z,16.70
2023-04-09T19:50:38.994Z,16.93
2023-04-09T19:53:26.091Z,17.93
2023-04-09T19:56:13.690Z,16.97
2023-04-09T19:59:00.960Z,16.80
2023-04-09T20:01:48.943Z,17.47
2023-04-09T20:04:37.707Z,17.80
2023-04-09T20:07:24.841Z,16.77
2023-04-09T20:10:12.833Z,17.57
2023-04-09T20:13:00.029Z,17.67
2023-04-09T20:15:47.670Z,17.57
2023-04-09T20:18:34.999Z,17.77
2023-04-09T20:21:24.076Z,16.70
2023-04-09T20:24:11.437Z,16.63
2023-04-09T20:26:59.570Z,17.03
2023-04-09T20:29:47.980Z,21.70
2023-04-09T20:32:37.749Z,20.20
2023-04-09T20:35:24.935Z,19.53
2023-04-09T20:38:13.625Z,17.87
2023-04-09T20:41:01.114Z,18.13
2023-04-09T20:43:48.354Z,16.60
2023-04-09T20:46:35.824Z,17.37
2023-04-09T20:49:23.931Z,17.20
2023-04-09T20:52:11.180Z,16.90
2023-04-09T20:55:00.562Z,15.77
2023-04-09T20:57:49.382Z,15.97
2023-04-09T21:00:36.509Z,16.80
2023-04-09T21:03:24.255Z,16.27
2023-04-09T21:06:12.103Z,15.37
2023-04-09T21:08:59.957Z,16.70
2023-04-09T21:11:48.815Z,15.93
2023-04-09T21:14:36.055Z,17.20
2023-04-09T21:17:23.665Z,17.83
2023-04-09T21:20:12.862Z,17.40
2023-04-09T21:23:00.094Z,18.57
2023-04-09T21:25:47.531Z,18.10
2023-04-09T21:28:36.536Z,17.73
2023-04-09T21:31:24.712Z,17.47
2023-04-09T21:34:12.390Z,16.90
2023-04-09T21:36:59.869Z,17.63
2023-04-09T21:39:48.315Z,17.83
2023-04-09T21:42:35.491Z,16.17
2023-04-09T21:45:24.356Z,15.53
2023-04-09T21:48:11.551Z,15.13
2023-04-09T21:50:59.367Z,16.03
2023-04-09T21:53:47.488Z,16.03
2023-04-09T21:56:35.827Z,17.47
2023-04-09T21:59:23.156Z,15.37
2023-04-09T22:02:12.055Z,15.50
2023-04-09T22:05:00.959Z,16.47
2023-04-09T22:07:48.357Z,17.30
2023-04-09T22:10:35.929Z,16.33
2023-04-09T22:13:23.331Z,17.17
2023-04-09T22:16:11.256Z,16.97
2023-04-09T22:18:59.942Z,18.73
2023-04-09T22:21:50.468Z,16.97
2023-04-09T22:24:39.234Z,17.60
2023-04-09T22:27:26.766Z,15.60
2023-04-09T22:30:14.929Z,18.07
2023-04-09T22:33:03.105Z,16.33
2023-04-09T22:35:51.628Z,16.37
2023-04-09T22:38:38.940Z,17.53
2023-04-09T22:41:26.457Z,17.93
2023-04-09T22:44:13.637Z,17.83
2023-04-09T22:47:01.340Z,19.40
2023-04-09T22:49:52.660Z,19.43
2023-04-09T22:52:41.238Z,18.47
2023-04-09T22:55:28.673Z,19.30
2023-04-09T22:58:16.089Z,20.27
2023-04-09T23:01:03.654Z,19.47
2023-04-09T23:03:51.687Z,18.73
2023-04-09T23:06:38.925Z,19.43
2023-04-09T23:09:27.719Z,20.93
2023-04-09T23:12:14.945Z,19.13
2023-04-09T23:15:02.618Z,18.50
2023-04-09T23:17:51.502Z,20.07
2023-04-09T23:20:38.832Z,20.13
2023-04-09T23:23:26.403Z,19.77
2023-04-09T23:26:15.097Z,19.67
2023-04-09T23:29:02.192Z,20.17
2023-04-09T23:31:49.676Z,21.47
2023-04-09T23:34:37.180Z,20.60
2023-04-09T23:37:24.617Z,20.57
2023-04-09T23:40:14.631Z,21.73
2023-04-09T23:43:03.743Z,20.50
2023-04-09T23:45:51.364Z,20.87
2023-04-09T23:48:38.562Z,20.60
2023-04-09T23:51:26.030Z,20.47
2023-04-09T23:54:13.686Z,21.27
2023-04-09T23:57:00.858Z,20.90
2023-04-09T23:59:49.778Z,21.57
